Time;durP1;ratioP1;P1;durP2;ratioP2;P2;SDS_P1;SDS_P2;PMS_P1;PMS_P2;Temp;Humidity;BMP_temperature;BMP_pressure;BME280_temperature;BME280_humidity;BME280_pressure;Samples;Min_cycle;Max_cycle;Signal;HPM_P1;HPM_P2
2023/02/13 00:00:24;;;;;;;23.43;12.53;;;;;;;7.91;100.00;102470.78;5080698;28;20465;-69
2023/02/13 00:02:51;;;;;;;16.80;11.93;;;;;;;7.84;100.00;102474.66;5082495;28;20570;-70
2023/02/13 00:05:17;;;;;;;18.17;11.53;;;;;;;7.80;100.00;102470.44;5095828;28;20452;-69
2023/02/13 00:07:44;;;;;;;20.63;11.27;;;;;;;7.84;100.00;102473.81;5085227;28;20503;-69
2023/02/13 00:10:11;;;;;;;17.07;10.77;;;;;;;7.95;100.00;102468.91;5081335;28;20481;-70
2023/02/13 00:12:39;;;;;;;22.23;11.50;;;;;;;7.97;100.00;102469.69;5082569;28;20439;-70
2023/02/13 00:15:07;;;;;;;16.87;12.20;;;;;;;7.94;100.00;102469.81;5082046;28;20458;-69
2023/02/13 00:17:34;;;;;;;18.43;11.60;;;;;;;7.82;100.00;102465.91;5081955;28;20470;-69
2023/02/13 00:20:00;;;;;;;17.77;10.93;;;;;;;7.74;100.00;102470.69;5081898;28;20443;-69
2023/02/13 00:22:27;;;;;;;23.03;12.83;;;;;;;7.49;100.00;102470.91;5080904;28;20480;-69
2023/02/13 00:24:54;;;;;;;17.80;11.80;;;;;;;7.60;100.00;102473.94;5080978;28;20466;-69
2023/02/13 00:27:20;;;;;;;19.63;11.70;;;;;;;7.63;100.00;102472.97;5081331;28;20504;-71
2023/02/13 00:29:48;;;;;;;20.13;12.00;;;;;;;7.62;100.00;102468.56;5080864;28;20455;-69
2023/02/13 00:32:15;;;;;;;17.50;11.10;;;;;;;7.73;100.00;102479.63;5081232;28;20509;-69
2023/02/13 00:34:42;;;;;;;30.20;13.63;;;;;;;7.66;100.00;102470.19;5088208;28;20458;-69
2023/02/13 00:37:09;;;;;;;19.53;11.10;;;;;;;7.78;100.00;102472.31;5081441;28;20491;-69
2023/02/13 00:39:36;;;;;;;16.70;9.80;;;;;;;7.78;100.00;102471.41;5081091;28;20440;-69
2023/02/13 00:42:02;;;;;;;18.20;10.73;;;;;;;7.84;100.00;102469.34;5081159;28;20471;-69
2023/02/13 00:44:29;;;;;;;24.60;11.80;;;;;;;7.77;100.00;102465.22;5083979;28;20471;-69
2023/02/13 00:46:57;;;;;;;18.90;11.00;;;;;;;7.85;100.00;102459.59;5083189;28;20548;-69
2023/02/13 00:49:24;;;;;;;18.40;10.93;;;;;;;7.75;100.00;102466.25;5081639;28;20478;-69
2023/02/13 00:51:50;;;;;;;26.77;12.33;;;;;;;7.65;100.00;102460.44;5080790;28;20509;-68
2023/02/13 00:54:17;;;;;;;19.40;12.10;;;;;;;7.71;100.00;102460.19;5080630;28;20506;-69
2023/02/13 00:56:44;;;;;;;16.07;10.17;;;;;;;7.82;100.00;102468.56;5089846;28;20482;-69
2023/02/13 00:59:10;;;;;;;20.43;10.87;;;;;;;7.73;100.00;102469.81;5081161;28;20449;-68
2023/02/13 01:01:37;;;;;;;16.57;9.90;;;;;;;7.73;100.00;102468.97;5080137;28;20510;-68
2023/02/13 01:04:05;;;;;;;15.40;9.97;;;;;;;7.60;100.00;102468.63;5082415;28;20456;-68
2023/02/13 01:06:32;;;;;;;14.90;9.60;;;;;;;7.68;100.00;102468.31;5060685;28;21096;-69
2023/02/13 01:08:58;;;;;;;16.50;9.67;;;;;;;7.56;100.00;102467.03;5063035;28;20477;-69
2023/02/13 01:11:25;;;;;;;17.17;10.67;;;;;;;7.49;100.00;102469.09;5080528;28;20493;-69
2023/02/13 01:13:51;;;;;;;18.60;11.10;;;;;;;7.53;100.00;102457.41;5081646;28;20443;-70
2023/02/13 01:16:18;;;;;;;16.60;9.90;;;;;;;7.52;100.00;102460.97;5101344;28;20562;-70
2023/02/13 01:18:45;;;;;;;18.80;10.40;;;;;;;7.52;100.00;102460.97;5083172;28;20446;-69
2023/02/13 01:21:18;;;;;;;16.43;9.50;;;;;;;7.56;100.00;102463.53;5080791;28;20483;-69
2023/02/13 01:23:45;;;;;;;20.03;11.10;;;;;;;7.52;100.00;102465.47;5080310;28;20510;-69
2023/02/13 01:26:17;;;;;;;16.67;10.67;;;;;;;7.53;100.00;102460.06;5097060;28;20512;-70
2023/02/13 01:28:44;;;;;;;18.77;10.47;;;;;;;7.53;100.00;102457.41;5081039;28;20551;-70
2023/02/13 01:31:10;;;;;;;15.50;9.43;;;;;;;7.53;100.00;102456.53;5080263;28;20486;-70
2023/02/13 01:33:37;;;;;;;17.03;10.20;;;;;;;7.48;100.00;102454.06;5081757;28;20439;-70
2023/02/13 01:36:09;;;;;;;13.70;8.17;;;;;;;7.53;100.00;102452.09;5080146;28;20518;-70
2023/02/13 01:38:37;;;;;;;18.17;11.00;;;;;;;7.59;100.00;102452.75;5080825;28;20463;-70
2023/02/13 01:41:04;;;;;;;14.67;8.50;;;;;;;7.52;100.00;102460.13;5079486;28;20474;-70
2023/02/13 01:43:47;;;;;;;16.40;9.23;;;;;;;7.52;100.00;102449.47;5090033;28;20448;-70
2023/02/13 01:46:17;;;;;;;18.20;9.80;;;;;;;7.52;100.00;102446.81;5080899;28;20478;-69
2023/02/13 01:48:44;;;;;;;19.67;9.60;;;;;;;7.51;100.00;102443.28;5080966;28;20536;-69
2023/02/13 01:51:13;;;;;;;15.50;9.80;;;;;;;7.46;100.00;102453.25;5080143;28;20544;-69
2023/02/13 01:53:44;;;;;;;16.80;10.17;;;;;;;7.42;100.00;102451.66;5080667;28;20486;-69
2023/02/13 01:56:14;;;;;;;22.83;11.53;;;;;;;7.52;100.00;102452.16;5080085;28;20498;-69
2023/02/13 01:58:43;;;;;;;18.30;10.50;;;;;;;7.43;100.00;102440.09;5080706;28;20430;-69
2023/02/13 02:01:10;;;;;;;15.40;9.10;;;;;;;7.46;100.00;102447.06;5080948;28;20479;-69
2023/02/13 02:03:39;;;;;;;17.07;9.63;;;;;;;7.42;100.00;102449.00;5100995;28;20436;-69
2023/02/13 02:06:07;;;;;;;15.47;9.90;;;;;;;7.44;100.00;102451.59;5100510;28;20482;-68
2023/02/13 02:08:35;;;;;;;18.67;10.73;;;;;;;7.34;100.00;102443.13;5080557;28;20487;-69
2023/02/13 02:11:08;;;;;;;21.80;10.73;;;;;;;7.37;100.00;102435.03;5080174;28;20557;-69
2023/02/13 02:13:34;;;;;;;16.20;11.47;;;;;;;7.29;100.00;102446.00;5061434;28;20461;-69
2023/02/13 02:16:01;;;;;;;20.80;10.60;;;;;;;7.42;100.00;102443.69;5060351;28;20509;-70
2023/02/13 02:18:28;;;;;;;19.07;11.03;;;;;;;7.43;100.00;102441.88;5076563;28;20453;-70
2023/02/13 02:21:21;;;;;;;17.00;9.07;;;;;;;7.40;100.00;102437.56;5080003;28;20490;-69
2023/02/13 02:24:07;;;;;;;20.43;11.37;;;;;;;7.37;100.00;102440.34;5064043;28;20486;-69
2023/02/13 02:26:55;;;;;;;18.43;10.53;;;;;;;7.52;100.00;102434.38;5083833;28;20472;-69
2023/02/13 02:29:57;;;;;;;19.67;9.90;;;;;;;7.53;100.00;102433.44;5084251;28;20449;-70
2023/02/13 02:32:33;;;;;;;18.70;10.37;;;;;;;7.47;100.00;102432.84;5093643;28;20473;-70
2023/02/13 02:35:10;;;;;;;19.13;10.77;;;;;;;7.44;100.00;102409.88;5104471;28;20591;-70
2023/02/13 02:37:48;;;;;;;16.63;10.03;;;;;;;7.48;100.00;102427.47;5093722;28;20566;-70
2023/02/13 02:40:23;;;;;;;20.30;10.87;;;;;;;7.46;100.00;102436.44;5084201;28;20444;-71
2023/02/13 02:43:00;;;;;;;22.47;11.43;;;;;;;7.37;100.00;102436.84;5064418;28;20443;-70
2023/02/13 02:45:29;;;;;;;18.43;10.57;;;;;;;7.44;100.00;102435.63;5079755;28;20463;-70
2023/02/13 02:50:50;;;;;;;17.00;10.40;;;;;;;7.40;100.00;102424.25;5088877;28;20491;-71
2023/02/13 02:53:26;;;;;;;25.50;10.63;;;;;;;7.40;100.00;102421.59;5088980;28;20463;-70
2023/02/13 02:56:00;;;;;;;20.63;11.70;;;;;;;7.46;100.00;102423.13;5063922;28;20480;-71
2023/02/13 03:06:51;;;;;;;25.50;12.83;;;;;;;7.34;100.00;102411.19;5067394;28;20489;-70
2023/02/13 03:15:08;;;;;;;23.30;12.40;;;;;;;7.32;100.00;102403.28;5045818;28;20457;-69
2023/02/13 03:23:20;;;;;;;25.70;13.23;;;;;;;7.40;100.00;102388.81;5082977;28;20502;-70
2023/02/13 03:26:04;;;;;;;26.60;13.87;;;;;;;7.37;100.00;102392.44;5081415;28;20532;-70
2023/02/13 03:31:24;;;;;;;27.23;14.57;;;;;;;7.30;100.00;102399.84;5082436;28;20504;-66
2023/02/13 03:33:56;;;;;;;30.90;16.80;;;;;;;7.24;100.00;102402.78;5083545;28;20441;-68
2023/02/13 03:39:20;;;;;;;29.53;15.80;;;;;;;7.35;100.00;102403.16;5080893;28;20463;-68
2023/02/13 03:41:51;;;;;;;28.00;16.40;;;;;;;7.23;100.00;102392.19;5082908;28;20506;-68
2023/02/13 03:44:20;;;;;;;31.40;15.57;;;;;;;7.27;100.00;102402.63;5080739;28;20437;-68
2023/02/13 03:46:49;;;;;;;35.83;18.67;;;;;;;7.19;100.00;102399.44;5081047;28;20561;-69
2023/02/13 03:52:10;;;;;;;29.80;14.20;;;;;;;7.25;100.00;102398.31;5082937;28;20500;-70
2023/02/13 04:00:13;;;;;;;28.40;14.77;;;;;;;7.17;100.00;102406.63;5081867;28;20479;-70
2023/02/13 04:02:48;;;;;;;31.90;15.13;;;;;;;7.29;100.00;102405.22;5078265;28;20499;-69
2023/02/13 04:05:16;;;;;;;29.70;16.73;;;;;;;7.22;100.00;102409.97;5081757;28;20484;-71
2023/02/13 04:07:44;;;;;;;27.07;14.43;;;;;;;7.22;100.00;102407.31;5085262;28;20547;-71
2023/02/13 04:10:13;;;;;;;24.40;15.90;;;;;;;7.23;100.00;102411.69;5083478;28;20465;-70
2023/02/13 04:12:46;;;;;;;24.43;15.27;;;;;;;7.13;100.00;102378.41;5083037;28;20465;-70
2023/02/13 04:15:15;;;;;;;32.50;16.10;;;;;;;7.19;100.00;102411.84;5081829;28;20476;-71
2023/02/13 04:17:46;;;;;;;25.10;15.33;;;;;;;7.28;100.00;102412.34;5081895;28;20479;-70
2023/02/13 04:20:13;;;;;;;25.33;14.50;;;;;;;7.25;100.00;102412.47;5076460;28;20481;-70
2023/02/13 04:22:44;;;;;;;28.23;16.10;;;;;;;7.12;100.00;102408.63;5082106;28;20475;-70
2023/02/13 04:25:11;;;;;;;31.50;15.30;;;;;;;7.11;100.00;102413.06;5081142;28;20489;-70
2023/02/13 04:27:38;;;;;;;28.47;15.33;;;;;;;7.20;100.00;102414.47;5082378;28;20476;-71
2023/02/13 04:30:06;;;;;;;26.40;14.53;;;;;;;7.15;100.00;102412.00;5081689;28;20595;-71
2023/02/13 04:32:32;;;;;;;26.93;16.03;;;;;;;6.97;100.00;102407.47;5082039;28;20481;-68
2023/02/13 04:34:59;;;;;;;27.93;13.63;;;;;;;7.00;100.00;102412.66;5078624;28;20490;-69
2023/02/13 04:37:26;;;;;;;29.03;14.60;;;;;;;7.03;100.00;102412.53;5076846;28;20539;-69
2023/02/13 04:39:54;;;;;;;25.60;13.93;;;;;;;7.15;100.00;102408.47;5081312;28;20569;-69
2023/02/13 04:42:20;;;;;;;24.13;13.43;;;;;;;7.18;100.00;102418.13;5081342;28;20540;-68
2023/02/13 04:44:47;;;;;;;25.83;13.90;;;;;;;7.00;100.00;102410.00;5081868;28;20454;-69
2023/02/13 04:47:14;;;;;;;26.43;13.97;;;;;;;7.14;100.00;102410.28;5080268;28;20482;-68
2023/02/13 04:49:40;;;;;;;28.63;15.00;;;;;;;7.17;100.00;102409.28;5100467;28;20473;-67
2023/02/13 04:52:07;;;;;;;23.27;13.10;;;;;;;7.00;100.00;102403.81;5081338;28;20506;-70
2023/02/13 04:54:33;;;;;;;27.10;13.90;;;;;;;7.15;100.00;102397.81;5080787;28;20557;-70
2023/02/13 04:57:02;;;;;;;25.90;13.07;;;;;;;7.13;100.00;102400.59;5079040;28;20509;-70
2023/02/13 04:59:28;;;;;;;21.53;12.80;;;;;;;7.07;100.00;102406.16;5077754;28;20448;-69
2023/02/13 05:01:55;;;;;;;24.60;12.03;;;;;;;7.10;100.00;102395.38;5080968;28;20493;-69
2023/02/13 05:04:22;;;;;;;23.57;12.57;;;;;;;7.03;100.00;102390.38;5081206;28;20439;-70
2023/02/13 05:06:48;;;;;;;23.23;12.67;;;;;;;7.18;100.00;102397.69;5081619;28;20537;-70
2023/02/13 05:09:15;;;;;;;23.17;12.50;;;;;;;7.18;100.00;102388.88;5083454;28;20486;-70
2023/02/13 05:11:42;;;;;;;21.97;11.97;;;;;;;7.11;100.00;102399.75;5081550;28;20517;-71
2023/02/13 05:14:11;;;;;;;21.80;11.57;;;;;;;7.04;100.00;102398.28;5086947;28;20533;-70
2023/02/13 05:16:37;;;;;;;19.20;11.50;;;;;;;7.06;100.00;102396.44;5080449;28;20560;-68
2023/02/13 05:19:04;;;;;;;22.07;11.80;;;;;;;7.23;100.00;102395.72;5081455;28;20475;-69
2023/02/13 05:24:15;;;;;;;19.07;10.00;;;;;;;7.02;100.00;102399.31;5069843;28;20522;-68
2023/02/13 05:26:42;;;;;;;23.53;11.00;;;;;;;7.11;100.00;102402.41;5082381;28;20542;-68
2023/02/13 05:29:21;;;;;;;21.93;10.40;;;;;;;7.00;100.00;102409.16;5065469;28;20489;-68
2023/02/13 05:31:51;;;;;;;16.43;10.77;;;;;;;7.10;100.00;102406.03;5100480;28;20513;-69
2023/02/13 05:34:17;;;;;;;21.57;10.73;;;;;;;7.04;100.00;102413.41;5076116;28;20478;-69
2023/02/13 05:36:44;;;;;;;20.77;11.13;;;;;;;7.13;100.00;102410.34;5080855;28;20927;-69
2023/02/13 05:39:11;;;;;;;21.40;10.87;;;;;;;7.14;100.00;102414.75;5070582;28;20441;-69
2023/02/13 05:41:37;;;;;;;19.13;9.77;;;;;;;7.11;100.00;102413.06;5073071;28;20518;-69
2023/02/13 05:44:04;;;;;;;21.03;10.83;;;;;;;7.14;100.00;102404.09;5088442;28;20523;-69
2023/02/13 05:46:31;;;;;;;19.20;9.93;;;;;;;7.15;100.00;102412.00;5066563;28;20468;-69
2023/02/13 05:48:59;;;;;;;22.20;10.80;;;;;;;7.08;100.00;102413.22;5075343;28;20470;-69
2023/02/13 05:51:26;;;;;;;17.20;9.00;;;;;;;7.00;100.00;102419.78;5074945;28;20500;-69
2023/02/13 05:53:52;;;;;;;18.80;9.80;;;;;;;7.18;100.00;102423.44;5079394;28;20456;-68
2023/02/13 05:56:19;;;;;;;18.83;9.83;;;;;;;7.24;100.00;102416.06;5080111;28;20500;-69
2023/02/13 05:58:45;;;;;;;21.10;10.30;;;;;;;7.28;100.00;102411.50;5081931;28;20531;-68
2023/02/13 06:01:12;;;;;;;32.23;13.70;;;;;;;7.08;100.00;102420.31;5078768;28;20481;-69
2023/02/13 06:03:40;;;;;;;19.43;10.20;;;;;;;7.07;100.00;102415.94;5082760;28;20510;-72
2023/02/13 06:06:08;;;;;;;17.60;9.07;;;;;;;7.11;100.00;102423.69;5082810;28;20918;-75
2023/02/13 06:08:35;;;;;;;15.57;9.20;;;;;;;7.19;100.00;102422.50;5084513;28;21113;-76
2023/02/13 06:11:01;;;;;;;17.33;10.13;;;;;;;7.15;100.00;102421.78;5082166;28;20520;-77
2023/02/13 06:13:28;;;;;;;17.07;9.63;;;;;;;7.12;100.00;102424.59;5086077;28;20453;-76
2023/02/13 06:15:55;;;;;;;22.57;12.07;;;;;;;7.24;100.00;102423.16;5084126;28;20475;-75
2023/02/13 06:18:21;;;;;;;17.30;9.30;;;;;;;7.02;100.00;102426.75;5084838;28;20482;-76
2023/02/13 06:20:48;;;;;;;18.47;11.27;;;;;;;7.04;100.00;102432.00;5083787;28;20508;-76
2023/02/13 06:23:16;;;;;;;16.83;9.40;;;;;;;7.18;100.00;102428.78;5072974;28;20463;-75
2023/02/13 06:25:43;;;;;;;20.97;10.87;;;;;;;7.11;100.00;102436.13;5083828;28;20537;-76
2023/02/13 06:28:09;;;;;;;15.93;9.23;;;;;;;7.13;100.00;102432.50;5084446;28;20447;-76
2023/02/13 06:30:36;;;;;;;14.83;9.23;;;;;;;6.91;100.00;102442.28;5083604;28;20500;-76
2023/02/13 06:33:03;;;;;;;20.87;10.13;;;;;;;6.84;100.00;102449.66;5084608;28;20446;-75
2023/02/13 06:35:29;;;;;;;21.00;11.13;;;;;;;6.75;100.00;102442.03;5081662;28;20541;-74
2023/02/13 06:37:56;;;;;;;24.97;11.17;;;;;;;6.82;100.00;102442.66;5084370;28;20510;-76
2023/02/13 06:40:24;;;;;;;25.27;11.47;;;;;;;6.90;100.00;102444.06;5085022;28;20459;-75
2023/02/13 06:42:51;;;;;;;22.03;11.13;;;;;;;6.88;100.00;102447.75;5104333;28;20950;-76
2023/02/13 06:45:17;;;;;;;25.80;11.80;;;;;;;6.82;100.00;102448.81;5097786;28;21513;-77
2023/02/13 06:47:45;;;;;;;21.77;11.23;;;;;;;6.83;100.00;102449.72;5091890;28;20465;-76
2023/02/13 06:50:14;;;;;;;22.43;10.70;;;;;;;6.85;100.00;102431.91;5082091;28;20474;-77
2023/02/13 06:52:46;;;;;;;19.80;10.27;;;;;;;6.67;100.00;102449.47;5074256;28;20440;-77
2023/02/13 06:55:12;;;;;;;21.17;10.43;;;;;;;6.72;100.00;102443.03;5074572;28;20478;-76
2023/02/13 06:57:41;;;;;;;20.60;10.30;;;;;;;6.74;100.00;102454.47;5067243;28;20525;-76
2023/02/13 07:00:12;;;;;;;22.70;11.37;;;;;;;6.71;100.00;102457.25;5072013;28;20465;-76
2023/02/13 07:02:39;;;;;;;17.17;9.77;;;;;;;6.83;100.00;102455.91;5071670;28;20472;-75
2023/02/13 07:05:06;;;;;;;20.60;10.50;;;;;;;6.78;100.00;102455.22;5083716;28;20477;-76
2023/02/13 07:07:33;;;;;;;20.27;10.20;;;;;;;6.86;100.00;102460.22;5082748;28;20457;-76
2023/02/13 07:10:00;;;;;;;20.70;10.67;;;;;;;6.76;100.00;102463.25;5066107;28;20490;-76
2023/02/13 07:12:27;;;;;;;19.13;9.80;;;;;;;6.73;100.00;102457.19;5084362;28;20514;-76
2023/02/13 07:14:55;;;;;;;20.10;11.10;;;;;;;6.72;100.00;102459.00;5100034;28;20455;-73
2023/02/13 07:17:22;;;;;;;23.00;10.97;;;;;;;6.81;100.00;102455.09;5073827;28;20502;-75
2023/02/13 07:19:48;;;;;;;20.30;9.83;;;;;;;6.83;100.00;102458.56;5080495;28;20492;-70
2023/02/13 07:22:15;;;;;;;18.10;8.93;;;;;;;7.04;100.00;102456.81;5082103;28;20506;-72
2023/02/13 07:24:41;;;;;;;21.13;10.83;;;;;;;7.04;100.00;102469.25;5083448;28;20459;-73
2023/02/13 07:27:08;;;;;;;16.47;9.30;;;;;;;7.05;100.00;102468.28;5085102;28;20476;-73
2023/02/13 07:29:35;;;;;;;16.90;9.87;;;;;;;7.01;100.00;102472.88;5082239;28;20546;-71
2023/02/13 07:32:04;;;;;;;14.37;8.63;;;;;;;7.18;100.00;102460.69;5078304;28;20490;-71
2023/02/13 07:34:30;;;;;;;17.80;10.40;;;;;;;7.02;100.00;102464.00;5085906;28;20442;-71
2023/02/13 07:36:57;;;;;;;19.50;10.17;;;;;;;7.11;100.00;102468.06;5092554;28;20523;-71
2023/02/13 07:39:23;;;;;;;21.90;10.40;;;;;;;7.06;100.00;102467.38;5084779;28;20453;-71
2023/02/13 07:41:50;;;;;;;27.43;10.90;;;;;;;7.13;100.00;102472.41;5081627;28;20500;-71
2023/02/13 07:44:17;;;;;;;21.03;11.40;;;;;;;7.29;100.00;102464.63;5082949;28;20444;-71
2023/02/13 07:46:44;;;;;;;20.47;10.70;;;;;;;7.24;100.00;102471.06;5087494;28;20470;-75
2023/02/13 07:49:12;;;;;;;18.70;10.57;;;;;;;7.08;100.00;102470.84;5082137;28;20482;-72
2023/02/13 07:51:39;;;;;;;18.47;10.43;;;;;;;7.04;100.00;102474.56;5082951;28;20501;-73
2023/02/13 07:54:05;;;;;;;23.77;11.90;;;;;;;6.97;100.00;102476.59;5073393;28;20885;-71
2023/02/13 07:56:32;;;;;;;20.77;10.57;;;;;;;7.22;100.00;102471.16;5084008;28;20486;-72
2023/02/13 07:58:59;;;;;;;19.83;10.93;;;;;;;7.37;100.00;102471.44;5073985;28;20469;-72
2023/02/13 08:01:25;;;;;;;20.87;10.70;;;;;;;7.27;100.00;102474.47;5081939;28;20480;-73
2023/02/13 08:03:52;;;;;;;21.23;11.97;;;;;;;7.48;100.00;102469.16;5082864;28;20453;-73
2023/02/13 08:06:20;;;;;;;17.83;9.40;;;;;;;7.74;100.00;102473.34;5090359;28;20473;-71
2023/02/13 08:08:47;;;;;;;17.50;10.47;;;;;;;7.37;100.00;102468.78;5100087;28;20493;-70
2023/02/13 08:14:03;;;;;;;20.50;10.60;;;;;;;7.46;100.00;102471.88;5085478;28;20451;-72
2023/02/13 08:16:30;;;;;;;18.50;11.40;;;;;;;7.61;100.00;102456.19;5091810;28;20510;-71
2023/02/13 08:18:57;;;;;;;21.20;10.60;;;;;;;7.41;100.00;102465.88;5082953;28;20946;-73
2023/02/13 08:21:25;;;;;;;22.37;11.47;;;;;;;7.49;100.00;102473.56;5080074;28;20883;-72
2023/02/13 08:23:51;;;;;;;17.80;10.13;;;;;;;7.73;100.00;102475.16;5081641;28;20478;-71
2023/02/13 08:26:18;;;;;;;18.77;10.40;;;;;;;7.76;100.00;102468.84;5084624;28;20478;-71
2023/02/13 08:28:45;;;;;;;19.17;9.70;;;;;;;7.92;100.00;102463.69;5083485;28;20534;-72
2023/02/13 08:31:12;;;;;;;17.87;9.90;;;;;;;7.69;100.00;102465.59;5093138;28;20572;-73
2023/02/13 08:33:40;;;;;;;20.73;11.00;;;;;;;7.69;100.00;102465.59;5082008;28;20434;-73
2023/02/13 08:36:07;;;;;;;16.90;8.63;;;;;;;7.99;100.00;102462.47;5094456;28;20486;-72
2023/02/13 08:38:35;;;;;;;16.00;9.17;;;;;;;8.19;100.00;102458.88;5101568;28;20461;-71
2023/02/13 08:41:02;;;;;;;17.43;9.60;;;;;;;8.02;100.00;102462.34;5099102;28;20481;-71
2023/02/13 08:43:29;;;;;;;14.00;8.10;;;;;;;8.08;100.00;102466.53;5081913;28;20461;-72
2023/02/13 08:45:58;;;;;;;18.67;8.83;;;;;;;7.96;100.00;102449.28;5086052;28;20474;-71
2023/02/13 08:48:24;;;;;;;16.60;8.30;;;;;;;7.90;100.00;102463.75;5102509;28;20423;-72
2023/02/13 08:50:51;;;;;;;15.63;8.03;;;;;;;7.74;100.00;102468.03;5099847;28;20506;-74
2023/02/13 08:53:18;;;;;;;16.90;9.60;;;;;;;7.58;100.00;102469.63;5085434;28;20506;-75
2023/02/13 08:55:53;;;;;;;14.20;8.73;;;;;;;7.81;100.00;102452.66;5080831;28;20528;-74
2023/02/13 08:58:20;;;;;;;13.43;8.33;;;;;;;7.86;100.00;102470.16;5084426;28;20437;-73
2023/02/13 09:00:46;;;;;;;16.27;9.00;;;;;;;7.72;100.00;102472.56;5087705;28;20508;-74
2023/02/13 09:03:13;;;;;;;14.53;8.77;;;;;;;7.54;100.00;102474.22;5098536;28;20469;-74
2023/02/13 09:05:40;;;;;;;13.90;8.27;;;;;;;7.76;100.00;102474.16;5080661;28;20620;-73
2023/02/13 09:08:07;;;;;;;16.00;8.70;;;;;;;7.78;100.00;102471.41;5081733;28;20838;-73
2023/02/13 09:10:34;;;;;;;13.43;7.90;;;;;;;8.05;100.00;102470.19;5079974;28;21141;-74
2023/02/13 09:13:02;;;;;;;10.30;7.87;;;;;;;8.14;100.00;102473.38;5096820;28;20446;-76
2023/02/13 09:15:29;;;;;;;13.10;8.30;;;;;;;7.93;100.00;102473.41;5100853;28;20499;-75
2023/02/13 09:17:56;;;;;;;11.30;6.90;;;;;;;7.89;100.00;102479.81;5080992;28;20546;-74
2023/02/13 09:20:22;;;;;;;15.43;8.97;;;;;;;7.82;100.00;102478.34;5078728;28;20454;-74
2023/02/13 09:22:49;;;;;;;11.07;7.40;;;;;;;7.86;100.00;102477.28;5080837;28;20453;-75
2023/02/13 09:25:16;;;;;;;13.57;7.70;;;;;;;7.85;100.00;102472.91;5079326;28;20459;-75
2023/02/13 09:27:42;;;;;;;12.20;7.50;;;;;;;7.94;100.00;102474.28;5090286;28;20507;-76
2023/02/13 09:30:13;;;;;;;14.37;8.83;;;;;;;8.16;100.00;102477.72;5079788;28;20467;-71
2023/02/13 09:32:41;;;;;;;15.30;7.57;;;;;;;8.34;100.00;102481.31;5070963;28;20457;-74
2023/02/13 09:35:08;;;;;;;11.67;7.20;;;;;;;8.09;100.00;102468.28;5080610;28;20448;-75
2023/02/13 09:37:35;;;;;;;13.40;7.53;;;;;;;8.44;100.00;102473.78;5093408;28;20518;-76
2023/02/13 09:40:01;;;;;;;14.30;8.00;;;;;;;8.39;100.00;102473.97;5087582;28;20459;-73
2023/02/13 09:42:30;;;;;;;10.90;6.80;;;;;;;8.51;100.00;102469.91;5091862;28;20475;-75
2023/02/13 09:44:59;;;;;;;14.40;8.00;;;;;;;8.59;100.00;102478.41;5083355;28;20546;-76
2023/02/13 09:47:30;;;;;;;15.43;8.80;;;;;;;8.47;100.00;102476.28;5080486;28;20543;-75
2023/02/13 09:49:59;;;;;;;11.67;7.20;;;;;;;8.15;100.00;102477.78;5080234;28;20980;-75
2023/02/13 09:52:28;;;;;;;17.33;8.67;;;;;;;8.43;100.00;102485.38;5086567;28;21244;-77
2023/02/13 09:54:55;;;;;;;11.10;6.67;;;;;;;8.38;100.00;102490.03;5079881;28;20479;-74
2023/02/13 09:57:28;;;;;;;9.40;6.43;;;;;;;8.44;100.00;102479.13;5079464;28;20520;-75
2023/02/13 10:00:00;;;;;;;10.80;6.80;;;;;;;8.46;100.00;102479.91;5060112;28;20458;-73
2023/02/13 10:02:46;;;;;;;8.63;6.40;;;;;;;8.41;100.00;102481.91;5093897;28;20562;-75
2023/02/13 10:05:31;;;;;;;11.57;7.40;;;;;;;8.63;100.00;102492.47;5099246;28;20439;-75
2023/02/13 10:08:04;;;;;;;10.73;7.30;;;;;;;8.84;100.00;102482.56;5098982;28;20459;-76
2023/02/13 10:10:35;;;;;;;10.90;6.73;;;;;;;8.88;100.00;102488.59;5079767;28;21008;-75
2023/02/13 10:13:13;;;;;;;9.77;6.23;;;;;;;9.09;100.00;102482.19;5079868;28;20460;-75
2023/02/13 10:15:45;;;;;;;12.00;6.80;;;;;;;8.58;100.00;102489.16;5089100;28;20479;-74
2023/02/13 10:18:16;;;;;;;8.70;6.20;;;;;;;8.47;100.00;102493.19;5086855;28;20477;-76
2023/02/13 10:20:46;;;;;;;8.27;6.00;;;;;;;8.60;100.00;102484.59;5068732;28;21099;-76
2023/02/13 10:23:18;;;;;;;9.27;6.37;;;;;;;8.68;100.00;102485.09;5100312;28;20451;-75
2023/02/13 10:25:49;;;;;;;15.10;8.60;;;;;;;8.84;100.00;102485.22;5098860;28;20471;-76
2023/02/13 10:28:19;;;;;;;10.80;7.10;;;;;;;8.80;100.00;102480.97;5100863;28;20575;-75
2023/02/13 10:30:50;;;;;;;9.83;7.17;;;;;;;8.84;100.00;102474.56;5078248;28;20517;-76
2023/02/13 10:33:21;;;;;;;13.70;7.07;;;;;;;9.16;100.00;102475.63;5083264;28;20480;-76
2023/02/13 10:35:52;;;;;;;9.33;6.10;;;;;;;9.60;100.00;102477.84;5083287;28;20562;-76
2023/02/13 10:38:22;;;;;;;10.60;6.60;;;;;;;9.23;100.00;102481.50;5082279;28;20471;-77
2023/02/13 10:41:06;;;;;;;11.30;6.60;;;;;;;9.28;100.00;102482.16;5078791;28;20476;-75
2023/02/13 10:43:40;;;;;;;9.70;6.03;;;;;;;9.64;100.00;102477.69;5080499;28;20468;-76
2023/02/13 10:46:14;;;;;;;8.30;5.50;;;;;;;9.58;100.00;102481.53;5097369;28;20479;-78
2023/02/13 10:48:59;;;;;;;9.23;6.10;;;;;;;9.59;100.00;102476.09;5063108;28;20913;-77
2023/02/13 10:51:34;;;;;;;15.33;8.27;;;;;;;9.73;100.00;102474.53;5090396;28;20488;-73
2023/02/13 10:54:17;;;;;;;8.93;5.83;;;;;;;9.64;100.00;102478.56;5087726;28;20460;-73
2023/02/13 10:56:47;;;;;;;11.17;6.47;;;;;;;9.38;100.00;102483.41;5102328;28;20479;-74
2023/02/13 10:59:26;;;;;;;7.70;6.40;;;;;;;9.17;100.00;102481.84;5102960;28;20444;-78
2023/02/13 11:01:56;;;;;;;9.80;6.07;;;;;;;9.34;100.00;102481.84;5094718;28;20487;-78
2023/02/13 11:04:24;;;;;;;10.77;7.30;;;;;;;9.11;100.00;102469.66;5082818;28;20450;-75
2023/02/13 11:06:55;;;;;;;8.63;6.10;;;;;;;9.20;100.00;102471.88;5082903;28;20506;-76
2023/02/13 11:09:23;;;;;;;10.93;6.73;;;;;;;9.41;100.00;102461.06;5099363;28;20463;-78
2023/02/13 11:11:49;;;;;;;10.17;6.20;;;;;;;9.05;100.00;102465.47;5096609;28;21065;-78
2023/02/13 11:14:18;;;;;;;11.10;6.20;;;;;;;9.20;100.00;102465.66;5103789;28;20439;-79
2023/02/13 11:16:50;;;;;;;10.00;6.60;;;;;;;9.00;100.00;102472.00;5082628;28;20543;-78
2023/02/13 11:19:24;;;;;;;10.13;7.00;;;;;;;8.91;100.00;102465.31;5092073;28;20443;-79
2023/02/13 11:21:55;;;;;;;12.03;7.37;;;;;;;9.59;100.00;102462.75;5082383;28;20639;-78
2023/02/13 11:24:23;;;;;;;12.03;7.13;;;;;;;9.07;100.00;102464.56;5082373;28;20444;-78
2023/02/13 11:26:57;;;;;;;7.73;5.63;;;;;;;9.29;100.00;102459.88;5094705;28;20502;-78
2023/02/13 11:29:26;;;;;;;12.37;6.93;;;;;;;9.66;100.00;102460.63;5103166;28;20446;-78
2023/02/13 11:32:05;;;;;;;10.17;7.10;;;;;;;9.41;100.00;102458.38;5088730;28;20482;-79
2023/02/13 11:34:34;;;;;;;10.20;6.33;;;;;;;9.35;100.00;102448.84;5082377;28;20449;-74
2023/02/13 11:37:22;;;;;;;8.57;6.00;;;;;;;9.30;100.00;102452.72;5098770;28;20480;-74
2023/02/13 11:39:50;;;;;;;13.40;7.40;;;;;;;9.40;100.00;102453.97;5101345;28;20832;-78
2023/02/13 11:42:21;;;;;;;9.47;6.17;;;;;;;9.10;100.00;102445.72;5068483;28;20801;-76
2023/02/13 11:44:50;;;;;;;8.53;6.10;;;;;;;9.45;100.00;102443.06;5063512;28;20490;-76
2023/02/13 11:47:30;;;;;;;12.57;7.13;;;;;;;9.38;100.00;102445.19;5087577;28;20482;-78
2023/02/13 11:49:58;;;;;;;8.47;6.23;;;;;;;9.38;100.00;102435.34;5102926;28;20530;-79
2023/02/13 11:52:26;;;;;;;8.73;5.87;;;;;;;9.50;100.00;102438.34;5077537;28;20496;-77
2023/02/13 11:54:58;;;;;;;10.13;5.90;;;;;;;9.98;100.00;102442.00;5096363;28;20451;-79
2023/02/13 11:57:30;;;;;;;8.33;5.80;;;;;;;10.12;100.00;102436.81;5082706;28;20552;-79
2023/02/13 11:59:56;;;;;;;9.53;6.23;;;;;;;10.01;100.00;102419.63;5082665;28;20441;-79
2023/02/13 12:02:25;;;;;;;9.80;5.80;;;;;;;10.04;100.00;102436.34;5090365;28;20476;-78
2023/02/13 12:04:53;;;;;;;8.63;5.90;;;;;;;9.80;100.00;102439.38;5096003;28;20527;-78